Vine Grove, KY (40175)

12:20 PM EDT on August 20, 2014 (GMT -0400)
Wandering Meadows | Change Station
CLOSE
Current Station
Personal Weather Station
Location: Vine Grove, KY
Elevation: 719 ft
Nearby Weather Stations

Elev 719 ft 37.81 °N, 86.03 °W | Updated 10 minutes ago

Clear
Clear
87.6 °F
Feels Like 99 °F
N
2.2
Wind Variable Wind from SSE

Today
High -- | Low -- °F
--% Chance of Precip.
Yesterday
High -- | Low -- °F
Precip. -- in
7:03 AM 8:30 PM
Waning Crescent, 20% visible
Pressure 29.95 in
Visibility 10.0 miles
Clouds Few 2300 ft
Heat Index 99 °F
Dew Point 76 °F
Humidity 69%
Rainfall 0.01 in
Snow Depth Not available.
UV 8 out of 12
Pollen 9.10 out of 12
Ozone Good
PM2.5 Moderate
Flu Activity Not available.
METAR KFTK 201558Z AUTO 00000KT 10SM FEW023 30/23 A2996 RMK AO2 SLP140 T02960232

More Conditions Fewer Conditions

Pressure 29.95 in
Visibility 10.0 miles
Clouds Few 2300 ft
Heat Index 99 °F
Dew Point 76 °F
Humidity 69%
Rainfall 0.01 in
Snow Depth Not available.
UV 8 out of 12
Pollen 9.10 out of 12
Ozone Good
PM2.5 Moderate
Flu Activity Not available.
METAR KFTK 201558Z AUTO 00000KT 10SM FEW023 30/23 A2996 RMK AO2 SLP140 T02960232

More Conditions Fewer Conditions

10-Day Weather Forecast

Almanac

Astronomy

Aug. 20, 2014 Rise Set
Actual Time 7:03 AM EDT 8:30 PM EDT
Civil Twilight 6:36 AM EDT 8:58 PM EDT
Nautical Twilight 6:03 AM EDT 9:31 PM EDT
Astronomical Twilight 5:28 AM EDT 10:05 PM EDT
Moon 2:45 AM EDT 5:13 PM EDT
Length of Visible Light 14h 21m
Length of Day
13h 26m
Tomorrow will be 2m 13s shorter.
Waning Crescent, 20% of the Moon is Illuminated
Today
Waning Crescent
Aug 25
New
Sep 2
First Quarter
Sep 8
Full
Sep 15
Last Quarter

Today's Extremes

State Highs State Lows

Community

WunderPhotos

Upload Photos

1,745,688 photos uploaded!

Nearby

Air Quality

  Air Quality AQ Index Pollutant
Yesterday Good
PM10
Yesterday Good
OZONE
Current Moderate
PM2.5
Current Good
OZONE
Wednesday Moderate
PM2.5
Wednesday Good
OZONE
Thursday Moderate
PM2.5
Thursday Moderate
OZONE
Friday Moderate
PM2.5
Friday Moderate
OZONE

Snow Depth

Station Depth Elevation
No new snow has been reported.

Earthquake Activity

City Distance Mag. Time & Date
No recent earthquake activity has been reported nearby.
Minimum magnitude displayed is 2.5.

Coastal Water Temperatures

Place Temperature
No Stations Reporting

Nearby Weather Stations